createdAt,value
2018-06-24T00:01:09.886Z,5.03
2018-06-24T00:03:40.173Z,5.13
2018-06-24T00:06:11.267Z,4.63
2018-06-24T00:08:42.286Z,5.50
2018-06-24T00:11:12.832Z,5.00
2018-06-24T00:13:43.229Z,5.10
2018-06-24T00:16:13.141Z,5.20
2018-06-24T00:18:43.076Z,5.43
2018-06-24T00:21:12.990Z,5.47
2018-06-24T00:23:42.968Z,5.37
2018-06-24T00:26:13.328Z,5.33
2018-06-24T00:28:43.491Z,5.97
2018-06-24T00:31:13.720Z,5.10
2018-06-24T00:33:45.588Z,5.30
2018-06-24T00:36:15.428Z,5.60
2018-06-24T00:38:46.040Z,5.10
2018-06-24T00:41:16.442Z,5.40
2018-06-24T00:43:46.598Z,5.57
2018-06-24T00:46:18.148Z,5.33
2018-06-24T00:48:48.005Z,5.00
2018-06-24T00:51:18.254Z,5.50
2018-06-24T00:53:48.277Z,5.40
2018-06-24T00:56:18.295Z,5.93
2018-06-24T00:58:48.259Z,5.47
2018-06-24T01:01:18.422Z,5.37
2018-06-24T01:03:48.429Z,5.93
2018-06-24T01:06:18.391Z,5.30
2018-06-24T01:08:48.165Z,5.90
2018-06-24T01:11:19.444Z,5.83
2018-06-24T01:13:49.664Z,5.53
2018-06-24T01:16:19.495Z,5.60
2018-06-24T01:18:50.799Z,5.93
2018-06-24T01:21:20.745Z,5.00
2018-06-24T01:23:50.829Z,5.80
2018-06-24T01:26:21.083Z,5.73
2018-06-24T01:28:51.220Z,5.77
2018-06-24T01:31:21.131Z,6.07
2018-06-24T01:33:51.165Z,5.37
2018-06-24T01:36:21.279Z,5.73
2018-06-24T01:38:51.049Z,6.07
2018-06-24T01:41:21.685Z,5.83
2018-06-24T01:43:57.795Z,5.47
2018-06-24T01:46:33.795Z,5.57
2018-06-24T01:49:05.774Z,5.13
2018-06-24T01:51:36.829Z,5.40
2018-06-24T01:54:17.753Z,5.40
2018-06-24T01:56:48.574Z,5.50
2018-06-24T01:59:21.020Z,5.40
2018-06-24T02:01:51.425Z,5.23
2018-06-24T02:04:21.427Z,5.30
2018-06-24T02:06:59.715Z,5.80
2018-06-24T02:09:30.006Z,6.07
2018-06-24T02:12:02.700Z,5.70
2018-06-24T02:14:42.533Z,6.10
2018-06-24T02:17:14.688Z,5.70
2018-06-24T02:20:03.825Z,5.93
2018-06-24T02:22:35.513Z,6.07
2018-06-24T02:25:11.727Z,6.23
2018-06-24T02:27:44.088Z,6.27
2018-06-24T02:30:16.393Z,6.43
2018-06-24T02:33:15.221Z,6.03
2018-06-24T02:35:52.752Z,5.90
2018-06-24T02:38:24.551Z,6.17
2018-06-24T02:40:58.125Z,6.40
2018-06-24T02:43:32.402Z,6.23
2018-06-24T02:46:10.336Z,6.80
2018-06-24T02:48:41.378Z,6.43
2018-06-24T02:51:15.911Z,6.87
2018-06-24T02:53:48.474Z,6.57
2018-06-24T02:56:20.450Z,7.40
2018-06-24T02:58:59.325Z,6.47
2018-06-24T03:01:41.371Z,6.90
2018-06-24T03:04:17.418Z,6.40
2018-06-24T03:06:50.476Z,6.63
2018-06-24T03:09:27.058Z,6.80
2018-06-24T03:12:03.831Z,7.07
2018-06-24T03:14:51.464Z,6.50
2018-06-24T03:17:25.335Z,7.20
2018-06-24T03:19:57.742Z,7.00
2018-06-24T03:22:31.255Z,6.77
2018-06-24T03:25:04.048Z,6.97
2018-06-24T03:27:39.972Z,6.70
2018-06-24T03:30:11.284Z,6.77
2018-06-24T03:32:44.868Z,6.90
2018-06-24T03:35:16.936Z,7.63
2018-06-24T03:37:48.290Z,6.87
2018-06-24T03:40:23.757Z,6.33
2018-06-24T03:42:55.318Z,6.83
2018-06-24T03:45:58.650Z,6.87
2018-06-24T03:48:32.079Z,6.70
2018-06-24T03:51:03.236Z,6.57
2018-06-24T03:53:34.462Z,7.30
2018-06-24T03:56:05.909Z,6.80
2018-06-24T03:58:36.993Z,6.47
2018-06-24T04:01:10.382Z,6.43
2018-06-24T04:03:44.375Z,6.67
2018-06-24T04:06:14.753Z,6.50
2018-06-24T04:08:45.598Z,7.03
2018-06-24T04:13:55.739Z,5.33
2018-06-24T04:16:26.996Z,5.97
2018-06-24T04:19:05.331Z,6.17
2018-06-24T04:21:41.342Z,6.20
2018-06-24T04:24:11.138Z,6.53
2018-06-24T04:26:42.974Z,6.50
2018-06-24T04:29:16.843Z,6.50
2018-06-24T04:31:47.838Z,6.17
2018-06-24T04:34:24.297Z,5.83
2018-06-24T04:36:57.317Z,5.60
2018-06-24T04:39:29.454Z,6.73
2018-06-24T04:42:00.903Z,6.03
2018-06-24T04:47:15.854Z,5.83
2018-06-24T04:49:50.061Z,6.43
2018-06-24T04:52:24.448Z,6.30
2018-06-24T04:55:05.931Z,6.17
2018-06-24T04:57:47.726Z,6.30
2018-06-24T05:00:20.506Z,6.17
2018-06-24T05:02:51.544Z,5.57
2018-06-24T05:05:22.192Z,5.10
2018-06-24T05:07:53.521Z,5.13
2018-06-24T05:10:27.004Z,4.83
2018-06-24T05:13:04.563Z,4.63
2018-06-24T05:15:39.355Z,4.33
2018-06-24T05:18:12.278Z,4.30
2018-06-24T05:20:43.706Z,4.00
2018-06-24T05:23:15.049Z,3.93
2018-06-24T05:25:45.146Z,4.00
2018-06-24T05:28:15.869Z,4.20
2018-06-24T05:30:48.511Z,3.67
2018-06-24T05:33:21.582Z,5.70
2018-06-24T05:35:52.741Z,5.90
2018-06-24T05:38:27.930Z,5.13
2018-06-24T05:41:02.286Z,6.63
2018-06-24T05:43:33.861Z,7.33
2018-06-24T05:46:04.495Z,9.37
2018-06-24T05:48:35.852Z,9.87
2018-06-24T05:51:06.613Z,10.97
2018-06-24T05:53:38.253Z,9.97
2018-06-24T05:56:10.487Z,11.57
2018-06-24T05:58:42.327Z,11.17
2018-06-24T06:01:16.661Z,11.10
2018-06-24T06:03:49.605Z,11.13
2018-06-24T06:06:23.370Z,12.20
2018-06-24T06:08:55.387Z,13.10
2018-06-24T06:11:27.654Z,12.77
2018-06-24T06:13:57.585Z,13.47
2018-06-24T06:16:32.818Z,14.20
2018-06-24T06:19:02.924Z,14.23
2018-06-24T06:21:39.541Z,14.43
2018-06-24T06:24:14.096Z,13.67
2018-06-24T06:26:48.456Z,13.17
2018-06-24T06:29:20.516Z,13.10
2018-06-24T06:31:54.328Z,14.20
2018-06-24T06:34:27.243Z,13.60
2018-06-24T06:36:58.450Z,14.93
2018-06-24T06:39:29.656Z,14.97
2018-06-24T06:42:04.533Z,15.43
2018-06-24T06:44:35.695Z,14.57
2018-06-24T06:47:08.143Z,16.60
2018-06-24T06:49:41.770Z,16.27
2018-06-24T06:52:15.484Z,16.90
2018-06-24T06:54:55.334Z,18.17
2018-06-24T06:57:26.063Z,17.43
2018-06-24T06:59:56.467Z,17.77
2018-06-24T07:02:27.978Z,16.77
2018-06-24T07:05:05.013Z,15.27
2018-06-24T07:07:37.746Z,15.50
2018-06-24T07:10:14.869Z,14.17
2018-06-24T07:12:50.098Z,14.03
2018-06-24T07:15:26.615Z,13.80
2018-06-24T07:17:59.445Z,16.47
2018-06-24T07:20:31.737Z,15.23
2018-06-24T07:23:02.319Z,17.30
2018-06-24T07:26:37.341Z,15.93
2018-06-24T07:29:10.677Z,15.83
2018-06-24T07:31:46.469Z,15.93
2018-06-24T07:34:16.584Z,14.20
2018-06-24T07:36:49.627Z,15.20
2018-06-24T07:39:21.720Z,14.83
2018-06-24T07:41:53.156Z,14.13
2018-06-24T07:44:31.702Z,14.30
2018-06-24T07:47:05.401Z,13.40
2018-06-24T07:49:38.930Z,12.47
2018-06-24T07:52:11.645Z,12.80
2018-06-24T07:54:43.364Z,13.90
2018-06-24T07:57:14.342Z,12.33
2018-06-24T07:59:52.204Z,12.37
2018-06-24T08:02:31.685Z,13.10
2018-06-24T08:05:04.841Z,11.30
2018-06-24T08:07:36.550Z,11.20
2018-06-24T08:10:10.263Z,11.57
2018-06-24T08:12:43.572Z,11.40
2018-06-24T08:15:17.065Z,12.27
2018-06-24T08:17:51.079Z,13.00
2018-06-24T08:20:24.929Z,11.87
2018-06-24T08:22:56.655Z,13.63
2018-06-24T08:25:29.543Z,13.90
2018-06-24T08:28:10.329Z,13.07
2018-06-24T08:30:48.118Z,11.73
2018-06-24T08:33:20.441Z,12.43
2018-06-24T08:35:53.473Z,12.43
2018-06-24T08:38:27.842Z,11.87
2018-06-24T08:41:02.698Z,12.07
2018-06-24T08:43:37.690Z,12.67
2018-06-24T08:46:12.896Z,13.00
2018-06-24T08:48:50.101Z,10.80
2018-06-24T08:51:26.381Z,12.27
2018-06-24T08:54:00.831Z,13.87
2018-06-24T08:56:34.683Z,14.57
2018-06-24T08:59:08.037Z,15.90
2018-06-24T09:01:48.801Z,16.50
2018-06-24T09:04:25.359Z,16.00
2018-06-24T09:06:58.328Z,15.53
2018-06-24T09:12:09.913Z,16.77
2018-06-24T09:14:56.651Z,17.00
2018-06-24T09:17:32.790Z,15.87
2018-06-24T09:20:05.693Z,16.77
2018-06-24T09:22:39.975Z,16.73
2018-06-24T09:25:17.117Z,15.83
2018-06-24T09:28:10.747Z,15.47
2018-06-24T09:30:43.157Z,15.53
2018-06-24T09:33:16.439Z,14.87
2018-06-24T09:35:49.904Z,15.20
2018-06-24T09:38:24.461Z,14.43
2018-06-24T09:40:57.796Z,14.87
2018-06-24T09:43:30.700Z,14.83
2018-06-24T09:46:05.443Z,16.30
2018-06-24T09:48:39.729Z,16.23
2018-06-24T09:51:27.364Z,15.27
2018-06-24T09:54:05.638Z,14.93
2018-06-24T09:57:01.110Z,16.07
2018-06-24T09:59:36.731Z,15.30
2018-06-24T10:02:15.199Z,16.03
2018-06-24T10:04:47.300Z,15.17
2018-06-24T10:07:55.574Z,15.87
2018-06-24T10:10:29.487Z,15.00
2018-06-24T10:13:03.797Z,15.03
2018-06-24T10:15:41.608Z,14.00
2018-06-24T10:18:15.429Z,16.47
2018-06-24T10:20:48.740Z,16.27
2018-06-24T10:23:22.468Z,15.03
2018-06-24T10:26:08.120Z,13.93
2018-06-24T10:29:00.556Z,15.20
2018-06-24T10:31:51.993Z,13.10
2018-06-24T10:37:42.018Z,12.20
2018-06-24T10:40:31.181Z,13.90
2018-06-24T10:43:35.031Z,12.60
2018-06-24T10:46:11.733Z,12.27
2018-06-24T10:48:46.117Z,14.30
2018-06-24T10:51:24.063Z,12.83
2018-06-24T10:54:20.741Z,12.63
2018-06-24T10:57:01.354Z,13.07
2018-06-24T10:59:53.784Z,13.23
2018-06-24T11:02:40.601Z,11.87
2018-06-24T11:05:25.381Z,11.13
2018-06-24T11:08:04.664Z,9.83
2018-06-24T11:11:13.254Z,8.67
2018-06-24T11:16:35.396Z,9.13
2018-06-24T11:19:12.600Z,8.67
2018-06-24T11:21:47.442Z,9.70
2018-06-24T11:24:21.961Z,9.77
2018-06-24T11:27:00.829Z,9.20
2018-06-24T11:29:44.930Z,10.47
2018-06-24T11:32:23.464Z,10.00
2018-06-24T11:35:11.898Z,10.37
2018-06-24T11:37:49.903Z,10.40
2018-06-24T11:40:56.680Z,10.37
2018-06-24T11:43:34.026Z,9.23
2018-06-24T11:46:40.814Z,9.07
2018-06-24T11:49:37.512Z,8.77
2018-06-24T11:55:11.774Z,7.77
2018-06-24T11:57:59.340Z,9.20
2018-06-24T12:00:37.323Z,7.40
2018-06-24T12:03:18.368Z,7.10
2018-06-24T12:06:12.346Z,7.90
2018-06-24T12:08:46.697Z,7.70
2018-06-24T12:11:22.514Z,6.97
2018-06-24T12:14:13.622Z,5.90
2018-06-24T12:17:04.842Z,6.90
2018-06-24T12:19:43.454Z,6.10
2018-06-24T12:22:41.437Z,6.47
2018-06-24T12:25:22.073Z,6.47
2018-06-24T12:27:55.120Z,5.37
2018-06-24T12:30:29.899Z,5.60
2018-06-24T12:33:04.404Z,5.40
2018-06-24T12:41:02.594Z,4.70
2018-06-24T12:43:41.493Z,5.70
2018-06-24T12:49:15.802Z,5.33
2018-06-24T12:51:48.652Z,6.00
2018-06-24T12:54:36.542Z,5.57
2018-06-24T12:57:22.002Z,6.13
2018-06-24T12:59:55.735Z,5.50
2018-06-24T13:02:32.166Z,5.90
2018-06-24T13:05:14.409Z,5.47
2018-06-24T13:07:49.072Z,5.00
2018-06-24T13:13:07.860Z,5.03
2018-06-24T13:15:45.416Z,5.07
2018-06-24T13:18:33.797Z,4.40
2018-06-24T13:21:12.631Z,3.83
2018-06-24T13:23:57.495Z,5.07
2018-06-24T13:26:46.240Z,5.27
2018-06-24T13:29:24.824Z,4.67
2018-06-24T13:32:01.247Z,4.30
2018-06-24T13:34:43.046Z,4.43
2018-06-24T13:37:18.409Z,4.13
2018-06-24T13:39:52.504Z,3.90
2018-06-24T13:42:28.000Z,4.67
2018-06-24T13:45:00.622Z,4.77
2018-06-24T13:47:38.074Z,4.43
2018-06-24T13:50:16.377Z,3.57
2018-06-24T13:52:59.761Z,3.30
2018-06-24T13:55:37.694Z,2.90
2018-06-24T13:58:17.315Z,3.43
2018-06-24T14:00:54.492Z,3.00
2018-06-24T14:03:29.348Z,4.20
2018-06-24T14:06:07.310Z,3.43
2018-06-24T14:08:48.367Z,3.27
2018-06-24T14:11:21.901Z,3.00
2018-06-24T14:13:58.887Z,2.80
2018-06-24T14:16:36.803Z,3.40
2018-06-24T14:19:13.313Z,3.40
2018-06-24T14:22:05.297Z,2.60
2018-06-24T14:24:41.633Z,2.63
2018-06-24T14:27:26.288Z,2.47
2018-06-24T14:29:57.616Z,3.53
2018-06-24T14:32:32.913Z,3.03
2018-06-24T14:35:05.548Z,2.70
2018-06-24T14:37:39.918Z,2.53
2018-06-24T14:40:18.085Z,3.33
2018-06-24T14:42:56.293Z,3.00
2018-06-24T14:45:29.463Z,2.87
2018-06-24T14:48:07.543Z,2.57
2018-06-24T14:50:42.796Z,2.87
2018-06-24T14:53:15.580Z,2.53
2018-06-24T14:55:50.974Z,2.43
2018-06-24T14:58:29.751Z,2.63
2018-06-24T15:01:04.388Z,2.10
2018-06-24T15:03:36.928Z,2.33
2018-06-24T15:06:15.451Z,3.00
2018-06-24T15:08:50.461Z,2.43
2018-06-24T15:11:28.725Z,1.83
2018-06-24T15:14:03.898Z,2.57
2018-06-24T15:16:36.693Z,2.10
2018-06-24T15:19:12.994Z,2.30
2018-06-24T15:21:49.747Z,2.00
2018-06-24T15:24:24.395Z,2.57
2018-06-24T15:27:02.337Z,2.30
2018-06-24T15:29:39.653Z,2.40
2018-06-24T15:32:16.320Z,2.60
2018-06-24T15:34:54.765Z,2.17
2018-06-24T15:37:28.657Z,2.33
2018-06-24T15:40:03.535Z,2.07
2018-06-24T15:45:16.220Z,2.30
2018-06-24T15:47:49.045Z,2.80
2018-06-24T15:50:23.098Z,2.20
2018-06-24T15:53:00.113Z,2.30
2018-06-24T15:55:38.490Z,2.67
2018-06-24T15:58:13.676Z,2.13
2018-06-24T16:00:50.565Z,2.43
2018-06-24T16:03:26.784Z,2.27
2018-06-24T16:05:58.532Z,2.57
2018-06-24T16:08:35.579Z,2.63
2018-06-24T16:11:13.352Z,2.23
2018-06-24T16:13:46.897Z,2.47
2018-06-24T16:16:24.059Z,3.07
2018-06-24T16:18:59.728Z,3.20
2018-06-24T16:21:45.455Z,3.00
2018-06-24T16:24:23.470Z,3.30
2018-06-24T16:27:03.812Z,3.17
2018-06-24T16:29:58.365Z,3.17
2018-06-24T16:35:21.309Z,3.23
2018-06-24T16:37:58.893Z,3.33
2018-06-24T16:40:34.606Z,3.27
2018-06-24T16:45:52.500Z,3.20
2018-06-24T16:48:27.340Z,3.17
2018-06-24T16:51:03.393Z,3.50
2018-06-24T16:56:27.677Z,3.40
2018-06-24T16:59:02.546Z,3.70
2018-06-24T17:01:40.311Z,3.27
2018-06-24T17:06:51.619Z,3.33
2018-06-24T17:09:26.959Z,3.43
2018-06-24T17:12:10.988Z,3.40
2018-06-24T17:14:46.028Z,3.63
2018-06-24T17:17:18.230Z,3.00
2018-06-24T17:20:23.454Z,3.67
2018-06-24T17:22:58.387Z,3.50
2018-06-24T17:25:38.322Z,3.00
2018-06-24T17:28:15.903Z,3.53
2018-06-24T17:30:48.573Z,3.90
2018-06-24T17:33:21.905Z,3.90
2018-06-24T17:36:04.952Z,3.67
2018-06-24T17:38:51.116Z,3.30
2018-06-24T17:41:28.190Z,3.60
2018-06-24T17:44:05.599Z,4.03
2018-06-24T17:46:39.806Z,3.27
2018-06-24T17:54:24.458Z,3.80
2018-06-24T17:56:59.210Z,3.43
2018-06-24T17:59:39.835Z,3.80
2018-06-24T18:02:14.808Z,3.83
2018-06-24T18:04:55.010Z,3.47
2018-06-24T18:07:31.861Z,3.50
2018-06-24T18:10:16.516Z,3.37
2018-06-24T18:12:51.667Z,3.33
2018-06-24T18:15:24.553Z,3.10
2018-06-24T18:17:55.585Z,3.30
2018-06-24T18:20:30.412Z,3.10
2018-06-24T18:23:09.006Z,3.40
2018-06-24T18:25:45.184Z,3.00
2018-06-24T18:28:20.568Z,3.07
2018-06-24T18:30:53.621Z,2.47
2018-06-24T18:33:41.748Z,2.43
2018-06-24T18:36:20.652Z,3.00
2018-06-24T18:38:53.532Z,2.80
2018-06-24T18:41:26.178Z,2.93
2018-06-24T18:44:07.863Z,3.03
2018-06-24T18:46:53.564Z,3.33
2018-06-24T18:49:30.049Z,3.37
2018-06-24T18:52:05.024Z,2.63
2018-06-24T18:54:41.464Z,2.80
2018-06-24T18:57:19.565Z,3.30
2018-06-24T18:59:53.724Z,2.87
2018-06-24T19:02:28.983Z,3.20
2018-06-24T19:05:04.731Z,2.87
2018-06-24T19:07:42.210Z,3.00
2018-06-24T19:10:19.967Z,3.10
2018-06-24T19:12:55.305Z,3.50
2018-06-24T19:15:33.474Z,2.80
2018-06-24T19:18:08.658Z,3.07
2018-06-24T19:20:49.224Z,3.13
2018-06-24T19:23:36.112Z,3.20
2018-06-24T19:26:12.466Z,3.03
2018-06-24T19:28:48.589Z,2.80
2018-06-24T19:31:20.974Z,2.70
2018-06-24T19:34:00.496Z,3.17
2018-06-24T19:36:33.582Z,3.13
2018-06-24T19:39:12.948Z,3.00
2018-06-24T19:41:49.611Z,2.97
2018-06-24T19:44:23.839Z,2.90
2018-06-24T19:47:00.481Z,3.03
2018-06-24T19:49:33.692Z,2.73
2018-06-24T19:52:09.345Z,3.20
2018-06-24T19:54:47.731Z,3.33
2018-06-24T19:57:21.212Z,3.07
2018-06-24T19:59:56.826Z,3.33
2018-06-24T20:02:31.489Z,3.57
2018-06-24T20:05:14.738Z,3.87
2018-06-24T20:07:49.144Z,3.40
2018-06-24T20:10:27.369Z,4.10
2018-06-24T20:13:05.078Z,3.50
2018-06-24T20:15:45.342Z,3.53
2018-06-24T20:18:20.451Z,3.40
2018-06-24T20:20:56.061Z,3.67
2018-06-24T20:26:20.014Z,3.43
2018-06-24T20:28:56.074Z,3.70
2018-06-24T20:31:29.586Z,3.73
2018-06-24T20:34:11.883Z,3.63
2018-06-24T20:36:51.964Z,3.97
2018-06-24T20:39:27.200Z,4.43
2018-06-24T20:45:30.408Z,3.83
2018-06-24T20:48:16.985Z,3.83
2018-06-24T20:50:58.573Z,4.43
2018-06-24T20:53:41.298Z,3.83
2018-06-24T20:56:43.219Z,3.57
2018-06-24T21:00:39.246Z,3.97
2018-06-24T21:03:11.540Z,4.57
2018-06-24T21:05:49.668Z,4.07
2018-06-24T21:08:20.640Z,4.50
2018-06-24T21:10:58.803Z,4.30
2018-06-24T21:13:37.949Z,4.43
2018-06-24T21:16:13.700Z,4.27
2018-06-24T21:18:54.949Z,4.60
2018-06-24T21:21:44.178Z,5.70
2018-06-24T21:24:24.613Z,5.80
2018-06-24T21:27:21.836Z,5.97
2018-06-24T21:29:57.718Z,5.07
2018-06-24T21:32:41.953Z,5.20
2018-06-24T21:35:13.921Z,5.17
2018-06-24T21:37:47.561Z,4.77
2018-06-24T21:40:26.853Z,4.90
2018-06-24T21:43:02.980Z,4.43
2018-06-24T21:45:37.003Z,4.30
2018-06-24T21:48:27.405Z,3.73
2018-06-24T21:51:03.421Z,4.33
2018-06-24T21:53:39.091Z,4.50
2018-06-24T21:56:18.701Z,4.70
2018-06-24T21:58:53.491Z,4.03
2018-06-24T22:01:30.845Z,4.67
2018-06-24T22:04:07.347Z,4.40
2018-06-24T22:09:26.918Z,4.43
2018-06-24T22:12:06.344Z,3.90
2018-06-24T22:14:40.994Z,3.93
2018-06-24T22:17:15.735Z,4.07
2018-06-24T22:19:50.108Z,4.33
2018-06-24T22:22:22.572Z,4.73
2018-06-24T22:24:53.805Z,5.07
2018-06-24T22:27:28.998Z,4.67
2018-06-24T22:30:09.914Z,5.27
2018-06-24T22:32:51.550Z,5.93
2018-06-24T22:39:07.014Z,6.40
2018-06-24T22:41:40.940Z,7.30
2018-06-24T22:44:17.084Z,6.90
2018-06-24T22:46:47.587Z,7.83
2018-06-24T22:49:48.260Z,6.93
2018-06-24T22:52:20.567Z,6.80
2018-06-24T22:54:55.916Z,7.33
2018-06-24T22:57:30.685Z,7.83
2018-06-24T23:00:20.593Z,7.10
2018-06-24T23:02:50.994Z,9.17
2018-06-24T23:05:24.717Z,9.43
2018-06-24T23:07:59.179Z,10.17
2018-06-24T23:10:58.135Z,12.03
2018-06-24T23:13:30.518Z,10.47
2018-06-24T23:16:03.272Z,10.73
2018-06-24T23:18:35.291Z,8.80
2018-06-24T23:21:09.691Z,7.70
2018-06-24T23:23:41.511Z,6.37
2018-06-24T23:26:14.924Z,6.43
2018-06-24T23:28:48.463Z,6.27
2018-06-24T23:31:19.431Z,5.83
2018-06-24T23:33:52.131Z,6.43
2018-06-24T23:36:23.703Z,6.40
2018-06-24T23:38:57.042Z,8.07
2018-06-24T23:41:28.950Z,8.53
2018-06-24T23:43:59.673Z,8.13
2018-06-24T23:46:33.739Z,8.60
2018-06-24T23:49:05.125Z,9.33
2018-06-24T23:51:38.716Z,9.10
2018-06-24T23:54:10.381Z,9.30
